createdAt,value
2019-05-21T00:01:29.833Z,78.03
2019-05-21T00:03:59.363Z,78.27
2019-05-21T00:07:08.049Z,78.15
2019-05-21T00:09:37.464Z,78.45
2019-05-21T00:12:06.833Z,78.33
2019-05-21T00:14:36.333Z,78.37
2019-05-21T00:20:31.091Z,78.80
2019-05-21T00:26:14.962Z,79.07
2019-05-21T00:28:42.991Z,79.16
2019-05-21T00:31:50.400Z,79.08
2019-05-21T00:34:57.893Z,79.79
2019-05-21T00:38:05.278Z,80.07
2019-05-21T00:41:12.701Z,79.86
2019-05-21T00:44:32.393Z,80.21
2019-05-21T00:52:44.306Z,80.45
2019-05-21T00:55:53.014Z,80.80
2019-05-21T00:58:22.599Z,80.55
2019-05-21T01:00:52.161Z,80.65
2019-05-21T01:03:21.670Z,80.30
2019-05-21T01:14:48.692Z,80.59
2019-05-21T01:21:06.164Z,80.43
2019-05-21T01:26:15.305Z,80.33
2019-05-21T01:29:24.080Z,80.25
2019-05-21T01:31:55.385Z,80.07
2019-05-21T01:34:24.750Z,79.87
2019-05-21T01:45:51.697Z,79.56
2019-05-21T01:48:21.611Z,79.66
2019-05-21T01:50:51.118Z,79.40
2019-05-21T01:56:55.305Z,79.61
2019-05-21T02:05:32.717Z,79.65
2019-05-21T02:07:52.378Z,80.01
2019-05-21T02:10:22.000Z,80.02
2019-05-21T02:13:30.723Z,80.40
2019-05-21T02:16:00.128Z,80.28
2019-05-21T02:18:29.640Z,80.27
2019-05-21T02:20:59.095Z,80.31
2019-05-21T02:23:28.534Z,80.46
2019-05-21T02:25:57.887Z,80.50
2019-05-21T02:28:27.412Z,80.64
2019-05-21T02:30:57.162Z,80.55
2019-05-21T02:33:28.199Z,80.78
2019-05-21T02:35:57.581Z,80.92
2019-05-21T02:41:35.632Z,80.83
2019-05-21T02:44:44.334Z,80.98
2019-05-21T02:47:13.859Z,80.97
2019-05-21T02:53:17.169Z,80.66
2019-05-21T02:59:25.832Z,80.76
2019-05-21T03:04:50.656Z,82.98
2019-05-21T03:07:20.171Z,82.38
2019-05-21T03:10:10.168Z,82.30
2019-05-21T03:25:02.062Z,81.53
2019-05-21T03:27:29.673Z,81.69
2019-05-21T03:29:59.154Z,81.79
2019-05-21T03:32:28.541Z,81.59
2019-05-21T03:34:58.065Z,81.88
2019-05-21T03:37:27.564Z,81.91
2019-05-21T03:39:56.976Z,81.83
2019-05-21T03:42:26.471Z,81.91
2019-05-21T03:45:00.291Z,81.75
2019-05-21T03:50:23.088Z,81.64
2019-05-21T03:56:06.915Z,81.48
2019-05-21T03:58:36.316Z,81.20
2019-05-21T04:04:01.272Z,81.05
2019-05-21T04:06:31.174Z,81.24
2019-05-21T04:11:55.784Z,81.10
2019-05-21T04:14:44.259Z,81.07
2019-05-21T04:17:34.705Z,81.12
2019-05-21T04:26:19.533Z,80.45
2019-05-21T04:28:49.620Z,80.55
2019-05-21T04:31:18.944Z,80.30
2019-05-21T04:34:27.832Z,80.06
2019-05-21T04:37:09.752Z,80.31
2019-05-21T04:39:28.665Z,79.91
2019-05-21T04:44:53.767Z,79.50
2019-05-21T04:47:23.469Z,79.43
2019-05-21T04:50:32.267Z,79.04
2019-05-21T04:53:01.777Z,79.17
2019-05-21T04:55:31.207Z,78.99
2019-05-21T04:58:00.666Z,79.04
2019-05-21T05:03:45.092Z,78.76
2019-05-21T05:06:14.536Z,78.67
2019-05-21T05:08:44.032Z,78.41
2019-05-21T05:11:13.557Z,78.51
2019-05-21T05:16:44.641Z,78.64
2019-05-21T05:23:02.280Z,77.91
2019-05-21T05:25:31.886Z,78.16
2019-05-21T05:28:01.979Z,78.27
2019-05-21T05:30:31.586Z,77.96
2019-05-21T05:33:00.970Z,77.74
2019-05-21T05:35:30.590Z,77.79
2019-05-21T05:38:00.201Z,77.91
2019-05-21T05:40:29.724Z,77.87
2019-05-21T05:42:59.132Z,77.90
2019-05-21T05:45:28.539Z,77.99
2019-05-21T05:47:58.314Z,77.99
2019-05-21T05:53:19.567Z,77.94
2019-05-21T05:55:49.073Z,78.07
2019-05-21T05:58:18.675Z,77.77
2019-05-21T06:01:27.424Z,77.79
2019-05-21T06:09:59.867Z,77.93
2019-05-21T06:12:29.981Z,77.39
2019-05-21T06:14:59.682Z,77.71
2019-05-21T06:17:29.081Z,77.32
2019-05-21T06:19:58.803Z,77.86
2019-05-21T06:22:28.290Z,77.16
2019-05-21T06:24:57.688Z,77.20
2019-05-21T06:27:27.141Z,77.40
2019-05-21T06:29:56.537Z,77.29
2019-05-21T06:33:05.788Z,77.34
2019-05-21T06:35:35.369Z,77.27
2019-05-21T06:38:17.300Z,77.36
2019-05-21T06:41:15.365Z,77.39
2019-05-21T06:46:45.992Z,77.66
2019-05-21T06:49:15.772Z,77.66
2019-05-21T06:55:20.274Z,76.20
2019-05-21T06:57:49.741Z,76.35
2019-05-21T07:00:58.730Z,75.95
2019-05-21T07:03:28.286Z,76.20
2019-05-21T07:05:59.455Z,76.32
2019-05-21T07:09:08.433Z,76.33
2019-05-21T07:15:03.862Z,76.39
2019-05-21T07:17:33.372Z,76.09
2019-05-21T07:20:42.137Z,76.76
2019-05-21T07:23:11.650Z,74.55
2019-05-21T07:25:41.016Z,74.19
2019-05-21T07:28:10.596Z,74.08
2019-05-21T07:39:56.791Z,73.20
2019-05-21T07:43:05.501Z,73.52
2019-05-21T07:45:35.059Z,73.23
2019-05-21T07:51:18.577Z,72.44
2019-05-21T07:53:48.153Z,72.72
2019-05-21T07:56:18.175Z,73.41
2019-05-21T08:02:22.320Z,73.68
2019-05-21T08:11:07.209Z,73.98
2019-05-21T08:13:36.671Z,73.74
2019-05-21T08:16:45.532Z,74.13
2019-05-21T08:31:13.699Z,75.56
2019-05-21T08:34:22.564Z,75.42
2019-05-21T08:37:31.764Z,76.40
2019-05-21T08:40:01.157Z,75.05
2019-05-21T08:42:30.540Z,75.15
2019-05-21T08:45:19.710Z,74.80
2019-05-21T08:50:28.269Z,74.83
2019-05-21T08:56:06.777Z,76.22
2019-05-21T08:58:36.519Z,75.79
2019-05-21T09:01:45.225Z,75.93
2019-05-21T09:04:14.653Z,75.03
2019-05-21T09:06:44.573Z,74.04
2019-05-21T09:09:14.160Z,74.22
2019-05-21T09:11:43.579Z,74.87
2019-05-21T09:14:13.095Z,75.42
2019-05-21T09:16:42.493Z,74.60
2019-05-21T09:19:11.853Z,74.04
2019-05-21T09:22:20.720Z,74.54
2019-05-21T09:24:50.231Z,74.65
2019-05-21T09:27:19.731Z,74.60
2019-05-21T09:30:28.476Z,74.78
2019-05-21T09:32:58.255Z,75.24
2019-05-21T09:35:27.897Z,74.60
2019-05-21T09:37:57.399Z,74.05
2019-05-21T09:43:42.392Z,74.69
2019-05-21T09:46:11.775Z,74.52
2019-05-21T09:49:00.121Z,74.46
2019-05-21T09:54:38.387Z,74.88
2019-05-21T10:00:37.686Z,74.43
2019-05-21T10:18:06.831Z,74.92
2019-05-21T10:21:15.619Z,75.32
2019-05-21T10:24:24.650Z,74.81
2019-05-21T10:33:09.802Z,75.19
2019-05-21T10:35:39.146Z,74.41
2019-05-21T10:41:46.031Z,74.30
2019-05-21T10:44:14.486Z,74.34
2019-05-21T10:47:23.401Z,74.61
2019-05-21T10:49:52.929Z,74.83
2019-05-21T10:52:22.409Z,74.49
2019-05-21T10:55:31.531Z,74.40
2019-05-21T11:01:35.507Z,73.76
2019-05-21T11:07:15.419Z,73.78
2019-05-21T11:10:24.081Z,73.16
2019-05-21T11:13:33.033Z,72.62
2019-05-21T11:22:18.255Z,71.29
2019-05-21T11:24:47.848Z,70.81
2019-05-21T11:27:56.617Z,70.41
2019-05-21T11:30:26.090Z,69.98
2019-05-21T11:33:34.810Z,69.37
2019-05-21T11:42:06.731Z,64.83
2019-05-21T11:44:36.310Z,63.64
2019-05-21T11:47:05.780Z,64.32
2019-05-21T11:49:35.533Z,61.85
2019-05-21T11:55:18.826Z,62.39
2019-05-21T12:01:02.784Z,61.26
2019-05-21T12:07:19.207Z,60.11
2019-05-21T12:09:48.783Z,59.92
2019-05-21T12:12:18.282Z,58.79
2019-05-21T12:14:47.720Z,60.30
2019-05-21T12:17:56.510Z,57.78
2019-05-21T12:21:05.326Z,58.88
2019-05-21T12:30:10.159Z,58.94
2019-05-21T12:33:18.884Z,57.95
2019-05-21T12:36:28.070Z,56.98
2019-05-21T12:45:00.666Z,54.89
2019-05-21T12:47:30.155Z,53.82
2019-05-21T12:50:38.992Z,54.46
2019-05-21T12:53:08.706Z,52.38
2019-05-21T12:56:17.674Z,54.49
2019-05-21T12:58:47.172Z,52.66
2019-05-21T13:01:16.783Z,53.52
2019-05-21T13:03:46.543Z,55.01
2019-05-21T13:06:15.986Z,53.83
2019-05-21T13:09:32.829Z,54.34
2019-05-21T13:11:56.049Z,54.79
2019-05-21T13:15:04.744Z,54.52
2019-05-21T13:17:34.274Z,52.50
2019-05-21T13:20:04.681Z,51.49
2019-05-21T13:22:53.876Z,50.62
2019-05-21T13:31:50.257Z,52.80
2019-05-21T13:34:19.763Z,53.12
2019-05-21T13:36:49.257Z,52.31
2019-05-21T13:41:59.236Z,51.08
2019-05-21T13:45:07.922Z,50.17
2019-05-21T13:47:37.387Z,50.99
2019-05-21T13:53:31.889Z,51.57
2019-05-21T13:56:01.502Z,52.01
2019-05-21T13:58:30.935Z,52.87
2019-05-21T14:06:51.926Z,53.12
2019-05-21T14:10:14.103Z,53.13
2019-05-21T14:13:11.226Z,52.83
2019-05-21T14:18:19.991Z,48.27
2019-05-21T14:21:28.674Z,44.18
2019-05-21T14:24:37.481Z,42.89
2019-05-21T14:36:13.468Z,41.23
2019-05-21T14:39:06.106Z,39.79
2019-05-21T14:42:12.546Z,39.99
2019-05-21T14:44:42.089Z,38.17
2019-05-21T14:47:11.475Z,40.13
2019-05-21T14:49:40.982Z,39.99
2019-05-21T14:52:10.735Z,41.36
2019-05-21T14:54:43.057Z,41.04
2019-05-21T14:57:12.696Z,39.50
2019-05-21T14:59:42.317Z,43.24
2019-05-21T15:02:11.756Z,42.75
2019-05-21T15:04:41.384Z,41.60
2019-05-21T15:07:10.971Z,42.31
2019-05-21T15:09:40.545Z,43.62
2019-05-21T15:12:09.947Z,43.66
2019-05-21T15:14:40.273Z,45.77
2019-05-21T15:17:48.938Z,47.18
2019-05-21T15:23:32.300Z,47.08
2019-05-21T15:26:03.906Z,45.57
2019-05-21T15:28:33.412Z,46.14
2019-05-21T15:31:02.871Z,47.53
2019-05-21T15:33:32.354Z,48.92
2019-05-21T15:36:01.812Z,50.97
2019-05-21T15:38:48.738Z,52.11
2019-05-21T15:41:10.391Z,51.77
2019-05-21T15:43:33.489Z,51.96
2019-05-21T15:46:02.946Z,53.16
2019-05-21T15:48:32.320Z,53.23
2019-05-21T15:51:01.698Z,54.01
2019-05-21T15:53:31.510Z,54.84
2019-05-21T15:56:00.962Z,55.35
2019-05-21T15:59:10.164Z,55.68
2019-05-21T16:01:40.747Z,56.01
2019-05-21T16:04:50.384Z,56.52
2019-05-21T16:07:38.834Z,56.50
2019-05-21T16:10:47.629Z,56.80
2019-05-21T16:13:17.283Z,57.08
2019-05-21T16:15:46.971Z,57.07
2019-05-21T16:18:16.730Z,57.92
2019-05-21T16:20:46.118Z,57.88
2019-05-21T16:23:15.494Z,58.37
2019-05-21T16:25:44.996Z,58.51
2019-05-21T16:28:14.790Z,58.68
2019-05-21T16:30:44.436Z,58.84
2019-05-21T16:33:13.799Z,58.43
2019-05-21T16:35:43.262Z,58.59
2019-05-21T16:38:12.969Z,58.87
2019-05-21T16:40:42.561Z,59.06
2019-05-21T16:43:12.750Z,59.13
2019-05-21T16:45:42.202Z,59.34
2019-05-21T16:48:11.588Z,59.12
2019-05-21T16:50:41.544Z,59.02
2019-05-21T16:53:11.397Z,59.11
2019-05-21T16:55:41.240Z,58.91
2019-05-21T16:58:10.651Z,59.14
2019-05-21T17:00:40.274Z,59.12
2019-05-21T17:03:09.805Z,59.18
2019-05-21T17:05:39.328Z,59.14
2019-05-21T17:08:08.717Z,59.14
2019-05-21T17:10:38.144Z,58.93
2019-05-21T17:13:07.669Z,59.18
2019-05-21T17:15:37.073Z,59.10
2019-05-21T17:18:06.584Z,59.38
2019-05-21T17:20:36.247Z,59.40
2019-05-21T17:23:05.755Z,59.45
2019-05-21T17:25:35.131Z,59.68
2019-05-21T17:28:04.863Z,59.98
2019-05-21T17:30:34.411Z,60.32
2019-05-21T17:33:03.910Z,60.45
2019-05-21T17:35:33.405Z,60.97
2019-05-21T17:38:02.850Z,61.16
2019-05-21T17:40:32.413Z,61.45
2019-05-21T17:43:01.809Z,61.67
2019-05-21T17:45:31.215Z,62.21
2019-05-21T17:48:00.749Z,61.81
2019-05-21T17:50:30.127Z,61.99
2019-05-21T17:52:59.715Z,62.04
2019-05-21T17:55:29.802Z,62.45
2019-05-21T17:57:59.319Z,62.23
2019-05-21T18:01:09.187Z,62.48
2019-05-21T18:03:38.683Z,62.49
2019-05-21T18:06:08.754Z,62.56
2019-05-21T18:08:40.497Z,62.92
2019-05-21T18:11:11.504Z,62.83
2019-05-21T18:13:41.725Z,62.83
2019-05-21T18:16:12.146Z,63.20
2019-05-21T18:18:42.528Z,63.00
2019-05-21T18:21:12.196Z,62.97
2019-05-21T18:23:41.881Z,63.22
2019-05-21T18:26:11.603Z,63.41
2019-05-21T18:28:44.782Z,63.50
2019-05-21T18:34:20.258Z,63.91
2019-05-21T18:36:49.809Z,63.90
2019-05-21T18:39:20.661Z,64.66
2019-05-21T18:41:50.144Z,64.34
2019-05-21T18:44:19.550Z,64.39
2019-05-21T18:46:49.061Z,64.55
2019-05-21T18:49:18.578Z,64.94
2019-05-21T18:52:27.688Z,64.83
2019-05-21T18:54:57.256Z,64.97
2019-05-21T18:57:26.829Z,64.95
2019-05-21T18:59:56.238Z,65.34
2019-05-21T19:02:25.641Z,65.45
2019-05-21T19:05:06.946Z,66.13
2019-05-21T19:07:36.606Z,65.92
2019-05-21T19:13:31.528Z,66.50
2019-05-21T19:16:00.920Z,66.40
2019-05-21T19:18:30.563Z,66.55
2019-05-21T19:21:00.360Z,66.63
2019-05-21T19:23:30.330Z,66.75
2019-05-21T19:25:59.935Z,66.95
2019-05-21T19:28:29.323Z,67.37
2019-05-21T19:31:38.054Z,67.74
2019-05-21T19:34:19.143Z,68.03
2019-05-21T19:39:57.704Z,68.48
2019-05-21T19:42:27.400Z,68.78
2019-05-21T19:44:56.852Z,69.05
2019-05-21T19:47:26.227Z,69.45
2019-05-21T19:49:55.728Z,69.49
2019-05-21T19:52:25.283Z,69.65
2019-05-21T19:54:54.883Z,69.81
2019-05-21T19:58:03.816Z,70.15
2019-05-21T20:01:12.578Z,70.26
2019-05-21T20:07:11.429Z,70.71
2019-05-21T20:12:54.766Z,71.21
2019-05-21T20:15:24.636Z,71.26
2019-05-21T20:18:06.636Z,71.39
2019-05-21T20:20:28.019Z,71.52
2019-05-21T20:22:58.091Z,71.55
2019-05-21T20:25:29.686Z,71.82
2019-05-21T20:27:59.510Z,71.99
2019-05-21T20:30:30.443Z,72.14
2019-05-21T20:33:00.767Z,72.34
2019-05-21T20:35:31.357Z,72.47
2019-05-21T20:38:01.605Z,72.61
2019-05-21T20:40:31.238Z,72.65
2019-05-21T20:43:00.629Z,72.77
2019-05-21T20:45:30.119Z,73.06
2019-05-21T20:47:59.605Z,73.71
2019-05-21T20:50:29.812Z,73.66
2019-05-21T20:52:59.412Z,73.70
2019-05-21T20:58:24.670Z,74.82
2019-05-21T21:04:03.788Z,74.54
2019-05-21T21:06:36.004Z,74.44
2019-05-21T21:09:10.421Z,74.57
2019-05-21T21:11:40.132Z,74.78
2019-05-21T21:14:17.906Z,74.85
2019-05-21T21:16:43.418Z,75.02
2019-05-21T21:19:12.881Z,75.48
2019-05-21T21:21:42.439Z,75.78
2019-05-21T21:24:12.152Z,75.75
2019-05-21T21:32:59.433Z,76.11
2019-05-21T21:35:48.077Z,76.03
2019-05-21T21:38:24.231Z,75.89
2019-05-21T21:40:54.483Z,76.32
2019-05-21T21:43:24.211Z,76.83
2019-05-21T21:45:53.803Z,76.39
2019-05-21T21:54:28.241Z,76.55
2019-05-21T21:59:58.985Z,76.79
2019-05-21T22:03:08.411Z,76.70
2019-05-21T22:06:17.393Z,76.72
2019-05-21T22:35:41.478Z,76.65
2019-05-21T22:41:12.395Z,77.00
2019-05-21T22:44:21.113Z,77.05
2019-05-21T22:50:06.736Z,77.31
2019-05-21T22:52:36.264Z,77.37
2019-05-21T22:55:06.116Z,77.05
2019-05-21T22:57:35.563Z,77.13
2019-05-21T23:00:44.663Z,77.43
2019-05-21T23:06:20.458Z,78.18
2019-05-21T23:11:40.281Z,78.10
2019-05-21T23:20:30.473Z,78.90
2019-05-21T23:28:57.159Z,79.54
2019-05-21T23:34:53.288Z,79.61
2019-05-21T23:43:49.301Z,79.41
2019-05-21T23:46:18.735Z,79.36
2019-05-21T23:49:27.549Z,79.27
2019-05-21T23:51:57.309Z,79.04
2019-05-21T23:55:06.483Z,79.40
